Time;durP1;ratioP1;P1;durP2;ratioP2;P2;SDS_P1;SDS_P2;PMS_P1;PMS_P2;Temp;Humidity;BMP_temperature;BMP_pressure;BME280_temperature;BME280_humidity;BME280_pressure;Samples;Min_cycle;Max_cycle;Signal;HPM_P1;HPM_P2
2023/04/29 00:02:12;;;;;;;4.00;3.67;;;12.20;99.90;;;;;;5031647;28;20245;-42
2023/04/29 00:04:38;;;;;;;4.37;3.83;;;12.20;99.90;;;;;;5049906;28;20178;-41
2023/04/29 00:07:04;;;;;;;4.50;4.07;;;12.20;99.90;;;;;;5046153;28;20178;-41
2023/04/29 00:09:30;;;;;;;4.17;3.77;;;12.20;99.90;;;;;;5020932;28;20183;-42
2023/04/29 00:11:56;;;;;;;4.20;3.80;;;12.10;99.90;;;;;;5049357;28;20293;-39
2023/04/29 00:14:22;;;;;;;4.20;3.80;;;12.10;99.90;;;;;;5032084;28;20193;-42
2023/04/29 00:16:47;;;;;;;4.93;4.53;;;12.10;99.90;;;;;;5032954;28;20193;-40
2023/04/29 00:19:13;;;;;;;4.73;3.87;;;12.10;99.90;;;;;;5015648;28;20186;-41
2023/04/29 00:21:39;;;;;;;4.80;4.40;;;12.00;99.90;;;;;;5049522;28;20200;-41
2023/04/29 00:24:05;;;;;;;4.37;3.97;;;11.90;99.90;;;;;;5015957;28;20260;-42
2023/04/29 00:26:31;;;;;;;5.23;4.07;;;11.90;99.90;;;;;;5031810;28;20174;-42
2023/04/29 00:28:57;;;;;;;4.40;4.00;;;11.90;99.90;;;;;;5029705;28;20177;-41
2023/04/29 00:31:23;;;;;;;4.77;3.50;;;11.80;99.90;;;;;;5017002;28;20205;-41
2023/04/29 00:33:49;;;;;;;3.73;3.43;;;11.80;99.90;;;;;;5032132;28;20192;-42
2023/04/29 00:36:15;;;;;;;3.50;3.20;;;11.80;99.90;;;;;;5016193;28;20193;-40
2023/04/29 00:38:40;;;;;;;3.17;2.97;;;11.80;99.90;;;;;;5017669;28;20210;-38
2023/04/29 00:41:06;;;;;;;3.03;2.80;;;11.80;99.90;;;;;;5011761;28;20244;-41
2023/04/29 00:43:32;;;;;;;2.90;2.70;;;11.70;99.90;;;;;;5030866;28;20173;-42
2023/04/29 00:45:58;;;;;;;3.03;2.83;;;11.70;99.90;;;;;;5047435;28;20226;-41
2023/04/29 00:48:25;;;;;;;3.00;2.73;;;11.80;99.90;;;;;;5049894;28;20188;-40
2023/04/29 00:50:52;;;;;;;3.10;2.80;;;11.90;99.90;;;;;;5029789;28;20196;-41
2023/04/29 00:53:17;;;;;;;3.00;2.70;;;11.90;99.90;;;;;;5001029;28;20195;-39
2023/04/29 00:55:47;;;;;;;3.30;3.00;;;11.90;99.90;;;;;;5031117;28;20184;-41
2023/04/29 00:58:12;;;;;;;3.13;2.83;;;11.90;99.90;;;;;;5032387;28;20181;-41
2023/04/29 01:00:40;;;;;;;3.50;3.07;;;11.90;99.90;;;;;;5025196;28;20205;-39
2023/04/29 01:03:07;;;;;;;5.67;3.17;;;11.90;99.90;;;;;;5032070;28;20700;-41
2023/04/29 01:05:33;;;;;;;3.80;3.20;;;11.90;99.90;;;;;;5032134;28;20180;-41
2023/04/29 01:08:17;;;;;;;3.90;3.00;;;11.90;99.90;;;;;;5015665;28;20180;-42
2023/04/29 01:11:18;;;;;;;3.67;3.37;;;11.90;99.90;;;;;;5024136;28;20358;-42
2023/04/29 01:13:59;;;;;;;4.73;3.77;;;11.90;99.90;;;;;;4996575;28;20189;-40
2023/04/29 01:16:32;;;;;;;4.83;3.80;;;11.90;99.90;;;;;;5041559;28;20189;-39
2023/04/29 01:19:14;;;;;;;4.10;3.73;;;11.90;99.90;;;;;;5043829;28;20237;-42
2023/04/29 01:21:50;;;;;;;5.47;3.80;;;12.00;99.90;;;;;;5041845;28;20209;-41
2023/04/29 01:24:16;;;;;;;4.03;3.70;;;11.90;99.90;;;;;;5048503;28;20288;-40
2023/04/29 01:26:56;;;;;;;3.27;3.03;;;11.90;99.90;;;;;;5040816;28;20208;-42
2023/04/29 01:29:47;;;;;;;3.10;2.80;;;11.90;99.90;;;;;;5037881;28;20188;-41
2023/04/29 01:32:22;;;;;;;3.97;3.40;;;11.80;99.90;;;;;;5033746;28;20227;-40
2023/04/29 01:35:04;;;;;;;3.50;3.20;;;11.80;99.90;;;;;;5045039;28;20184;-42
2023/04/29 01:37:56;;;;;;;2.83;2.63;;;11.70;99.90;;;;;;5067903;28;20259;-41
2023/04/29 01:40:37;;;;;;;2.47;2.27;;;11.70;99.90;;;;;;5054024;28;20254;-41
2023/04/29 01:43:14;;;;;;;2.77;2.57;;;11.60;99.90;;;;;;5032060;28;20194;-42
2023/04/29 01:45:44;;;;;;;2.60;2.40;;;11.60;99.90;;;;;;5040829;28;20187;-41
2023/04/29 01:48:11;;;;;;;2.83;2.63;;;11.50;99.90;;;;;;5026646;28;20329;-41
2023/04/29 01:50:37;;;;;;;3.20;2.93;;;11.50;99.90;;;;;;5039823;28;20201;-40
2023/04/29 01:53:09;;;;;;;2.90;2.70;;;11.40;99.90;;;;;;5039982;28;20184;-41
2023/04/29 01:55:35;;;;;;;2.70;2.47;;;11.40;99.90;;;;;;5063141;28;20673;-38
2023/04/29 01:58:27;;;;;;;3.00;2.80;;;11.40;99.90;;;;;;5042614;28;20176;-41
2023/04/29 02:00:59;;;;;;;2.77;2.57;;;11.40;99.90;;;;;;5048241;28;20210;-42
2023/04/29 02:03:28;;;;;;;3.13;2.93;;;11.40;99.90;;;;;;5036681;28;20216;-41
2023/04/29 02:05:56;;;;;;;3.27;3.00;;;11.40;99.90;;;;;;5053340;28;20184;-40
2023/04/29 02:08:22;;;;;;;3.37;3.07;;;11.40;99.90;;;;;;5052037;28;20177;-41
2023/04/29 02:10:56;;;;;;;6.73;3.30;;;11.40;99.90;;;;;;5037937;28;20273;-39
2023/04/29 02:13:37;;;;;;;5.60;3.20;;;11.30;99.90;;;;;;5030147;28;20191;-41
2023/04/29 02:16:11;;;;;;;7.53;2.33;;;11.30;99.90;;;;;;5024562;28;20186;-41
2023/04/29 02:18:41;;;;;;;6.33;2.90;;;11.20;99.90;;;;;;5037829;28;20204;-42
2023/04/29 02:21:07;;;;;;;2.60;2.40;;;11.10;99.90;;;;;;5039332;28;20211;-42
2023/04/29 02:23:34;;;;;;;2.87;2.67;;;11.10;99.90;;;;;;5046277;28;20179;-40
2023/04/29 02:26:00;;;;;;;5.13;3.37;;;11.10;99.90;;;;;;5042636;28;20232;-39
2023/04/29 02:28:26;;;;;;;4.60;3.00;;;11.10;99.90;;;;;;5032109;28;20181;-41
2023/04/29 02:30:53;;;;;;;3.60;3.30;;;11.00;99.90;;;;;;5035859;28;20702;-39
2023/04/29 02:33:19;;;;;;;3.73;3.43;;;11.00;99.90;;;;;;5046527;28;20179;-41
2023/04/29 02:35:45;;;;;;;3.10;2.90;;;11.00;99.90;;;;;;5048785;28;20242;-41
2023/04/29 02:38:11;;;;;;;3.93;3.63;;;11.10;99.90;;;;;;5056232;28;20264;-41
2023/04/29 02:40:44;;;;;;;4.30;4.00;;;11.10;99.90;;;;;;5044809;28;20202;-40
2023/04/29 02:43:10;;;;;;;4.47;4.10;;;11.10;99.90;;;;;;5036854;28;20209;-39
2023/04/29 02:45:37;;;;;;;4.77;3.60;;;11.20;99.90;;;;;;5039237;28;20254;-41
2023/04/29 02:48:04;;;;;;;5.90;3.70;;;11.10;99.90;;;;;;5048590;28;20286;-41
2023/04/29 02:50:30;;;;;;;4.73;3.30;;;11.20;99.90;;;;;;5052176;28;20199;-41
2023/04/29 02:52:56;;;;;;;4.07;3.67;;;11.20;99.90;;;;;;5049420;28;20184;-39
2023/04/29 02:55:22;;;;;;;3.13;2.83;;;11.20;99.90;;;;;;5049044;28;20214;-41
2023/04/29 02:57:48;;;;;;;3.80;3.27;;;11.20;99.90;;;;;;5043965;28;20185;-42
2023/04/29 03:00:14;;;;;;;3.40;3.10;;;11.20;99.90;;;;;;5043798;28;20195;-41
2023/04/29 03:02:40;;;;;;;3.13;2.80;;;11.20;99.90;;;;;;5038059;28;20238;-41
2023/04/29 03:05:06;;;;;;;3.80;3.40;;;11.10;99.90;;;;;;5028773;28;20268;-41
2023/04/29 03:07:32;;;;;;;3.87;3.47;;;11.10;99.90;;;;;;5046116;28;20269;-41
2023/04/29 03:09:58;;;;;;;3.60;3.30;;;11.10;99.90;;;;;;5050706;28;20248;-40
2023/04/29 03:12:23;;;;;;;3.83;3.50;;;11.00;99.90;;;;;;5040868;28;20207;-39
2023/04/29 03:14:50;;;;;;;4.10;3.70;;;11.00;99.90;;;;;;5031291;28;20657;-41
2023/04/29 03:17:17;;;;;;;4.53;3.77;;;11.10;99.90;;;;;;5052088;28;20236;-41
2023/04/29 03:19:43;;;;;;;3.60;3.30;;;11.10;99.90;;;;;;5051071;28;20185;-41
2023/04/29 03:22:12;;;;;;;4.00;3.70;;;11.10;99.90;;;;;;5039272;28;20224;-41
2023/04/29 03:24:40;;;;;;;4.50;3.53;;;11.10;99.90;;;;;;5048877;28;20235;-38
2023/04/29 03:27:06;;;;;;;3.90;3.60;;;11.20;99.90;;;;;;5045421;28;20276;-41
2023/04/29 03:29:32;;;;;;;3.40;3.10;;;11.20;99.90;;;;;;5045461;28;20210;-41
2023/04/29 03:31:58;;;;;;;4.30;3.90;;;11.20;99.90;;;;;;5047767;28;20207;-42
2023/04/29 03:34:24;;;;;;;4.90;3.47;;;11.10;99.90;;;;;;5030266;28;20190;-38
2023/04/29 03:37:05;;;;;;;4.77;4.20;;;11.10;99.90;;;;;;5033349;28;20269;-38
2023/04/29 03:39:31;;;;;;;4.77;4.10;;;11.10;99.90;;;;;;5050445;28;20185;-41
2023/04/29 03:41:58;;;;;;;3.43;3.13;;;11.10;99.90;;;;;;5037558;28;20227;-39
2023/04/29 03:44:25;;;;;;;4.13;3.43;;;11.10;99.90;;;;;;5032495;28;20293;-40
2023/04/29 03:46:51;;;;;;;5.10;3.77;;;11.10;99.90;;;;;;5045795;28;20187;-43
2023/04/29 03:49:17;;;;;;;3.67;3.33;;;11.10;99.90;;;;;;5046183;28;20189;-41
2023/04/29 03:51:46;;;;;;;3.63;3.27;;;11.10;99.90;;;;;;5033843;28;20199;-39
2023/04/29 03:54:14;;;;;;;3.30;3.00;;;11.10;99.90;;;;;;5043101;28;20182;-42
2023/04/29 03:56:42;;;;;;;4.00;3.20;;;11.10;99.90;;;;;;5032968;28;20278;-39
2023/04/29 03:59:08;;;;;;;3.70;3.13;;;11.00;99.90;;;;;;5052960;28;20189;-41
2023/04/29 04:01:35;;;;;;;3.10;2.80;;;11.00;99.90;;;;;;5040647;28;20208;-41
2023/04/29 04:04:02;;;;;;;3.57;3.27;;;10.90;99.90;;;;;;5026129;28;20200;-41
2023/04/29 04:06:30;;;;;;;3.53;3.17;;;10.80;99.90;;;;;;5045025;28;20190;-41
2023/04/29 04:08:57;;;;;;;4.20;3.80;;;10.70;99.90;;;;;;5043521;28;20183;-41
2023/04/29 04:11:28;;;;;;;5.77;3.47;;;10.70;99.90;;;;;;5045626;28;20269;-40
2023/04/29 04:13:57;;;;;;;4.70;3.23;;;10.60;99.90;;;;;;5009984;28;20181;-41
2023/04/29 04:16:23;;;;;;;4.03;3.63;;;10.50;99.90;;;;;;5043916;28;20187;-41
2023/04/29 04:18:49;;;;;;;3.70;3.40;;;10.50;99.90;;;;;;5037934;28;20251;-41
2023/04/29 04:21:15;;;;;;;4.20;3.80;;;10.50;99.90;;;;;;5039961;28;20216;-41
2023/04/29 04:23:46;;;;;;;5.30;4.40;;;10.50;99.90;;;;;;5039879;28;20189;-41
2023/04/29 04:26:17;;;;;;;4.67;4.17;;;10.50;99.90;;;;;;5036312;28;20636;-41
2023/04/29 04:28:55;;;;;;;5.30;4.63;;;10.60;99.90;;;;;;5037314;28;20187;-40
2023/04/29 04:31:28;;;;;;;5.07;4.57;;;10.60;99.90;;;;;;5041902;28;20205;-41
2023/04/29 04:33:54;;;;;;;5.30;4.80;;;10.60;99.90;;;;;;5038708;28;20180;-41
2023/04/29 04:36:21;;;;;;;5.77;4.47;;;10.50;99.90;;;;;;5039472;28;20187;-40
2023/04/29 04:38:47;;;;;;;4.70;4.30;;;10.50;99.90;;;;;;5041457;28;20188;-39
2023/04/29 04:41:12;;;;;;;4.73;4.17;;;10.50;99.90;;;;;;5029249;28;20255;-41
2023/04/29 04:43:42;;;;;;;4.40;4.00;;;10.50;99.90;;;;;;5030702;28;20275;-38
2023/04/29 04:46:16;;;;;;;4.77;4.37;;;10.50;99.90;;;;;;5019205;28;20186;-38
2023/04/29 04:48:52;;;;;;;5.37;4.07;;;10.50;99.90;;;;;;5044456;28;20264;-39
2023/04/29 04:51:19;;;;;;;6.60;4.40;;;10.50;99.90;;;;;;5040590;28;20227;-41
2023/04/29 04:53:45;;;;;;;5.80;4.83;;;10.60;99.90;;;;;;5040529;28;20249;-40
2023/04/29 04:56:18;;;;;;;5.87;4.50;;;10.60;99.90;;;;;;5034118;28;20173;-38
2023/04/29 04:58:44;;;;;;;3.87;3.37;;;10.70;99.90;;;;;;5040400;28;20338;-40
2023/04/29 05:01:10;;;;;;;3.77;3.30;;;10.70;99.90;;;;;;5035938;28;20268;-40
2023/04/29 05:03:36;;;;;;;5.07;2.93;;;10.70;99.90;;;;;;5023883;28;20205;-38
2023/04/29 05:06:01;;;;;;;2.90;2.70;;;10.80;99.90;;;;;;5040754;28;20178;-37
2023/04/29 05:08:29;;;;;;;4.70;2.83;;;10.70;99.90;;;;;;5039974;28;20182;-39
2023/04/29 05:10:57;;;;;;;2.70;2.50;;;10.80;99.90;;;;;;5020179;28;20211;-36
2023/04/29 05:13:27;;;;;;;2.70;2.50;;;10.80;99.90;;;;;;5035445;28;20184;-39
2023/04/29 05:15:54;;;;;;;2.83;2.63;;;10.80;99.90;;;;;;5043479;28;20171;-42
2023/04/29 05:18:23;;;;;;;2.77;2.57;;;10.80;99.90;;;;;;5025424;28;20183;-41
2023/04/29 05:20:51;;;;;;;3.30;2.93;;;10.80;99.90;;;;;;5041849;28;20380;-38
2023/04/29 05:23:16;;;;;;;4.40;2.80;;;10.90;99.90;;;;;;5060393;28;20227;-39
2023/04/29 05:25:44;;;;;;;3.00;2.80;;;11.00;99.90;;;;;;5028224;28;20205;-39
2023/04/29 05:28:10;;;;;;;2.90;2.70;;;11.10;99.90;;;;;;5058824;28;20642;-37
2023/04/29 05:30:39;;;;;;;3.13;2.70;;;11.10;99.90;;;;;;5059827;28;20200;-39
2023/04/29 05:33:05;;;;;;;3.23;2.90;;;11.30;99.90;;;;;;5041153;28;20259;-39
2023/04/29 05:35:31;;;;;;;2.77;2.57;;;11.40;99.90;;;;;;5027174;28;20288;-41
2023/04/29 05:37:58;;;;;;;3.40;3.10;;;11.50;99.90;;;;;;5025207;28;20208;-38
2023/04/29 05:40:42;;;;;;;4.77;4.03;;;11.50;99.90;;;;;;5053264;28;20223;-38
2023/04/29 05:43:34;;;;;;;4.90;4.40;;;11.70;99.90;;;;;;5048787;28;20201;-37
2023/04/29 05:46:00;;;;;;;4.00;3.60;;;11.80;99.90;;;;;;5031617;28;20232;-39
2023/04/29 05:48:27;;;;;;;4.10;3.37;;;11.90;99.90;;;;;;5049270;28;20186;-41
2023/04/29 05:50:53;;;;;;;5.97;3.53;;;12.00;99.90;;;;;;5052629;28;20206;-39
2023/04/29 05:53:19;;;;;;;4.10;3.77;;;12.10;99.90;;;;;;5045394;28;20214;-41
2023/04/29 05:55:45;;;;;;;4.83;3.90;;;12.20;99.90;;;;;;5040350;28;20220;-37
2023/04/29 05:58:13;;;;;;;4.10;3.70;;;12.30;99.90;;;;;;5035492;28;20219;-37
2023/04/29 06:00:40;;;;;;;3.80;3.50;;;12.50;99.90;;;;;;5054367;28;20211;-41
2023/04/29 06:03:13;;;;;;;3.87;3.57;;;12.60;99.90;;;;;;5039325;28;20213;-40
2023/04/29 06:05:40;;;;;;;4.10;3.70;;;12.70;99.90;;;;;;5042431;28;20208;-39
2023/04/29 06:08:25;;;;;;;4.37;3.60;;;12.80;99.90;;;;;;5056721;28;20197;-39
2023/04/29 06:11:04;;;;;;;3.90;3.60;;;12.90;99.90;;;;;;5045180;28;20216;-39
2023/04/29 06:13:31;;;;;;;4.97;4.10;;;13.10;99.90;;;;;;5027894;28;20182;-42
2023/04/29 06:15:57;;;;;;;6.40;4.60;;;13.20;99.90;;;;;;5031770;28;20182;-41
2023/04/29 06:18:24;;;;;;;3.70;3.40;;;13.30;99.90;;;;;;5043064;28;20188;-40
2023/04/29 06:20:50;;;;;;;2.93;2.67;;;13.40;99.90;;;;;;5033775;28;20202;-42
2023/04/29 06:23:16;;;;;;;2.57;2.37;;;13.60;99.90;;;;;;5049950;28;20200;-43
2023/04/29 06:25:42;;;;;;;3.33;2.47;;;13.70;99.90;;;;;;5044810;28;20189;-41
2023/04/29 06:28:09;;;;;;;2.50;2.30;;;13.80;99.90;;;;;;5037818;28;20219;-42
2023/04/29 06:30:36;;;;;;;2.93;2.00;;;13.90;99.90;;;;;;5046183;28;20205;-40
2023/04/29 06:33:01;;;;;;;1.83;1.53;;;14.00;99.90;;;;;;5048174;28;20235;-41
2023/04/29 06:35:27;;;;;;;3.27;1.53;;;14.10;99.90;;;;;;5054412;28;20181;-42
2023/04/29 06:38:20;;;;;;;2.33;1.87;;;14.20;99.90;;;;;;5055634;28;20206;-41
2023/04/29 06:41:06;;;;;;;1.33;1.23;;;14.30;99.90;;;;;;5032118;28;20673;-41
2023/04/29 06:43:52;;;;;;;1.47;1.37;;;14.40;99.90;;;;;;5033356;28;20197;-38
2023/04/29 06:46:38;;;;;;;1.50;1.30;;;14.50;99.90;;;;;;5055516;28;20230;-41
2023/04/29 06:49:23;;;;;;;1.90;1.30;;;14.60;99.90;;;;;;5049347;28;20192;-40
2023/04/29 06:51:49;;;;;;;1.47;1.00;;;14.70;99.90;;;;;;5037097;28;20209;-42
2023/04/29 06:54:15;;;;;;;1.20;1.10;;;14.80;99.90;;;;;;5054288;28;20181;-39
2023/04/29 06:56:41;;;;;;;2.60;1.10;;;14.90;99.90;;;;;;5045600;28;20193;-41
2023/04/29 06:59:09;;;;;;;2.10;1.20;;;14.90;99.90;;;;;;5067767;28;20247;-41
2023/04/29 07:01:35;;;;;;;1.23;1.13;;;14.90;99.90;;;;;;5053236;28;20255;-41
2023/04/29 07:04:01;;;;;;;0.80;0.80;;;14.90;99.90;;;;;;5037036;28;20200;-41
2023/04/29 07:06:27;;;;;;;1.00;1.00;;;14.90;99.90;;;;;;5053508;28;20260;-39
2023/04/29 07:08:52;;;;;;;1.13;1.03;;;14.80;99.90;;;;;;5053605;28;20279;-39
2023/04/29 07:11:18;;;;;;;0.80;0.80;;;14.70;99.90;;;;;;5042774;28;20295;-42
2023/04/29 07:13:45;;;;;;;0.90;0.90;;;14.60;99.90;;;;;;5033852;28;20250;-41
2023/04/29 07:16:19;;;;;;;0.77;0.70;;;14.60;99.90;;;;;;5039672;28;20182;-45
2023/04/29 07:18:45;;;;;;;2.40;1.00;;;14.40;99.90;;;;;;5038141;28;20275;-41
2023/04/29 07:21:11;;;;;;;1.10;1.00;;;14.40;99.90;;;;;;5034955;28;21027;-41
2023/04/29 07:23:37;;;;;;;1.10;1.00;;;14.30;99.90;;;;;;5036583;28;20177;-43
2023/04/29 07:26:14;;;;;;;1.10;0.90;;;14.30;99.90;;;;;;5044156;28;20188;-43
2023/04/29 07:28:43;;;;;;;1.00;1.00;;;14.20;99.90;;;;;;5046364;28;20181;-42
2023/04/29 07:31:10;;;;;;;0.90;0.90;;;14.30;99.90;;;;;;5052071;28;20205;-41
2023/04/29 07:33:36;;;;;;;1.90;0.77;;;14.40;99.90;;;;;;5052798;28;20208;-41
2023/04/29 07:36:03;;;;;;;1.43;0.90;;;14.50;99.90;;;;;;5036717;28;20193;-41
2023/04/29 07:38:29;;;;;;;2.13;0.90;;;14.70;99.90;;;;;;5053012;28;20227;-43
2023/04/29 07:40:56;;;;;;;0.90;0.90;;;14.80;99.90;;;;;;5052263;28;20232;-44
2023/04/29 07:43:22;;;;;;;0.90;0.90;;;14.70;99.90;;;;;;5033715;28;20209;-42
2023/04/29 07:45:48;;;;;;;0.80;0.80;;;14.60;99.90;;;;;;5040515;28;20188;-42
2023/04/29 07:48:14;;;;;;;1.10;0.90;;;14.70;99.90;;;;;;5036193;28;20177;-44
2023/04/29 07:50:40;;;;;;;1.20;0.80;;;14.80;99.90;;;;;;5035769;28;20200;-42
2023/04/29 07:53:06;;;;;;;1.07;1.00;;;14.80;99.90;;;;;;5052922;28;20189;-44
2023/04/29 07:55:32;;;;;;;1.57;1.00;;;14.90;99.90;;;;;;5045062;28;20184;-43
2023/04/29 07:57:59;;;;;;;1.47;0.83;;;15.00;99.90;;;;;;5035906;28;20185;-44
2023/04/29 08:00:27;;;;;;;0.70;0.70;;;15.20;99.90;;;;;;5052687;28;20204;-44
2023/04/29 08:02:54;;;;;;;1.10;0.90;;;15.40;99.90;;;;;;5052431;28;20216;-42
2023/04/29 08:05:20;;;;;;;0.90;0.90;;;15.70;99.90;;;;;;5047911;28;20173;-44
2023/04/29 08:07:47;;;;;;;0.90;0.90;;;15.90;99.90;;;;;;5068234;28;20208;-44
2023/04/29 08:10:14;;;;;;;0.80;0.80;;;16.10;99.90;;;;;;5050859;28;20264;-44
2023/04/29 08:12:40;;;;;;;0.80;0.80;;;16.00;99.90;;;;;;5037620;28;20178;-43
2023/04/29 08:15:07;;;;;;;0.80;0.80;;;15.90;99.90;;;;;;5033635;28;20273;-43
2023/04/29 08:17:33;;;;;;;1.10;1.00;;;15.90;99.90;;;;;;5052390;28;20173;-44
2023/04/29 08:19:58;;;;;;;1.10;1.00;;;16.00;99.90;;;;;;5051824;28;20191;-44
2023/04/29 08:22:24;;;;;;;2.37;0.90;;;16.30;99.90;;;;;;5033956;28;20299;-41
2023/04/29 08:24:50;;;;;;;0.80;0.80;;;16.50;99.90;;;;;;5052415;28;20283;-39
2023/04/29 08:27:16;;;;;;;0.73;0.73;;;16.60;99.90;;;;;;5052626;28;20189;-42
2023/04/29 08:29:42;;;;;;;0.73;0.73;;;16.80;99.90;;;;;;5052606;28;20181;-40
2023/04/29 08:32:08;;;;;;;0.70;0.70;;;16.90;99.90;;;;;;5069891;28;20263;-40
2023/04/29 08:34:35;;;;;;;0.90;0.70;;;16.90;99.90;;;;;;5051395;28;20276;-42
2023/04/29 08:37:01;;;;;;;0.77;0.77;;;16.80;99.90;;;;;;5049112;28;20264;-42
2023/04/29 08:39:29;;;;;;;0.70;0.70;;;17.00;99.90;;;;;;5052656;28;20181;-39
2023/04/29 08:41:56;;;;;;;0.80;0.80;;;16.90;99.90;;;;;;5044935;28;20229;-42
2023/04/29 08:44:24;;;;;;;0.80;0.80;;;16.80;99.90;;;;;;5051872;28;20189;-40
2023/04/29 08:46:51;;;;;;;0.88;0.88;;;16.70;99.90;;;;;;5052357;28;20181;-42
2023/04/29 08:49:17;;;;;;;1.00;1.00;;;16.50;99.90;;;;;;5072992;28;20200;-41
2023/04/29 08:51:43;;;;;;;1.98;0.93;;;16.50;99.90;;;;;;5073647;28;20224;-42
2023/04/29 08:54:10;;;;;;;1.88;1.00;;;16.90;99.90;;;;;;5047939;28;20193;-41
2023/04/29 08:56:37;;;;;;;1.10;0.70;;;17.00;99.90;;;;;;5074412;28;20185;-41
2023/04/29 08:59:05;;;;;;;1.10;1.00;;;17.10;99.90;;;;;;5074350;28;20195;-40
2023/04/29 09:01:32;;;;;;;1.67;0.98;;;17.30;99.90;;;;;;5055039;28;20258;-42
2023/04/29 09:04:14;;;;;;;2.20;0.90;;;17.40;99.90;;;;;;5016367;28;20194;-42
2023/04/29 09:06:40;;;;;;;0.77;0.77;;;17.50;99.90;;;;;;5046355;28;20169;-41
2023/04/29 09:09:06;;;;;;;1.00;0.95;;;17.70;99.90;;;;;;5054935;28;20187;-41
2023/04/29 09:11:33;;;;;;;0.80;0.80;;;17.80;99.90;;;;;;5050039;28;20213;-42
2023/04/29 09:14:00;;;;;;;1.20;1.10;;;17.70;99.90;;;;;;5054688;28;20189;-41
2023/04/29 09:16:28;;;;;;;1.92;1.10;;;17.90;99.90;;;;;;5053442;28;20194;-40
2023/04/29 09:18:55;;;;;;;0.70;0.70;;;18.10;99.90;;;;;;5044097;28;20199;-39
2023/04/29 09:21:24;;;;;;;1.13;1.02;;;18.40;99.90;;;;;;5115786;22;20231;-40
2023/04/29 09:23:56;;;;;;;1.45;1.00;;;18.70;99.90;;;;;;5076058;28;20181;-39
2023/04/29 09:26:23;;;;;;;1.55;0.80;;;18.70;99.90;;;;;;5075910;28;20226;-39
2023/04/29 09:29:08;;;;;;;0.77;0.77;;;18.50;99.90;;;;;;5075200;28;20213;-39
2023/04/29 09:31:36;;;;;;;4.05;1.42;;;18.50;99.90;;;;;;5077242;28;20299;-42
2023/04/29 09:34:02;;;;;;;7.68;2.92;;;18.30;99.90;;;;;;5074467;28;20205;-42
2023/04/29 09:36:37;;;;;;;3.05;1.35;;;18.10;99.90;;;;;;5071538;28;20192;-39
2023/04/29 09:39:10;;;;;;;1.23;1.10;;;17.60;99.90;;;;;;5057902;28;20173;-40
2023/04/29 09:41:37;;;;;;;1.70;1.00;;;17.40;99.90;;;;;;5070353;28;20209;-42
2023/04/29 09:44:08;;;;;;;1.05;0.75;;;17.30;99.90;;;;;;5054671;28;20177;-43
2023/04/29 09:46:35;;;;;;;1.83;1.00;;;17.30;99.90;;;;;;5071412;28;20242;-44
2023/04/29 09:49:05;;;;;;;1.55;1.02;;;17.30;99.90;;;;;;5054981;28;20181;-40
2023/04/29 09:51:31;;;;;;;0.82;0.80;;;17.50;99.90;;;;;;5072722;28;20653;-39
2023/04/29 09:54:00;;;;;;;3.50;0.80;;;17.70;99.90;;;;;;5076644;28;20212;-40
2023/04/29 09:56:29;;;;;;;1.25;0.80;;;17.80;99.90;;;;;;5071188;28;20174;-40
2023/04/29 09:58:56;;;;;;;2.28;2.05;;;18.10;99.90;;;;;;5081587;28;20185;-39
2023/04/29 10:01:22;;;;;;;1.50;1.35;;;18.40;99.90;;;;;;5092406;28;20199;-42
2023/04/29 10:03:56;;;;;;;1.52;0.95;;;18.60;99.90;;;;;;5093525;28;20188;-40
2023/04/29 10:06:24;;;;;;;0.80;0.80;;;18.70;99.90;;;;;;5088509;28;20207;-39
2023/04/29 10:08:50;;;;;;;0.75;0.75;;;19.00;99.90;;;;;;5073825;28;20231;-38
2023/04/29 10:11:16;;;;;;;0.90;0.90;;;19.00;99.90;;;;;;5073310;28;20225;-39
2023/04/29 10:13:43;;;;;;;1.27;0.80;;;19.00;99.90;;;;;;5070390;28;20199;-39
2023/04/29 10:16:22;;;;;;;0.75;0.73;;;18.90;99.90;;;;;;5056485;28;20493;-43
2023/04/29 10:18:53;;;;;;;1.15;0.80;;;18.70;99.90;;;;;;5071413;28;20181;-39
2023/04/29 10:21:25;;;;;;;1.00;0.90;;;18.70;99.90;;;;;;5074154;28;20209;-38
2023/04/29 10:23:53;;;;;;;2.13;1.00;;;19.10;99.90;;;;;;5059028;28;20195;-39
2023/04/29 10:26:19;;;;;;;0.73;0.73;;;19.40;99.90;;;;;;5070992;28;20181;-39
2023/04/29 10:28:46;;;;;;;0.55;0.55;;;19.40;99.90;;;;;;5070883;28;20181;-45
2023/04/29 10:31:15;;;;;;;1.75;0.80;;;19.40;99.90;;;;;;5058110;28;20201;-40
2023/04/29 10:33:46;;;;;;;1.35;0.90;;;19.20;99.90;;;;;;5073316;28;20215;-41
2023/04/29 10:36:13;;;;;;;0.80;0.80;;;19.20;99.90;;;;;;5036850;28;20189;-38
2023/04/29 10:38:44;;;;;;;1.10;1.00;;;19.40;99.90;;;;;;5069172;28;20177;-39
2023/04/29 10:41:19;;;;;;;1.15;0.80;;;19.30;99.90;;;;;;5068367;28;20216;-39
2023/04/29 10:43:46;;;;;;;1.17;0.98;;;19.20;99.90;;;;;;5051640;28;20226;-41
2023/04/29 10:46:19;;;;;;;2.40;0.98;;;19.00;99.90;;;;;;5061636;28;20185;-38
2023/04/29 10:48:55;;;;;;;2.88;1.00;;;18.90;99.90;;;;;;5069872;28;20185;-38
2023/04/29 10:51:30;;;;;;;1.33;1.20;;;18.40;99.90;;;;;;5053204;28;20243;-38
2023/04/29 10:54:08;;;;;;;1.45;1.00;;;17.80;99.90;;;;;;5052658;28;20204;-38
2023/04/29 10:56:48;;;;;;;1.65;1.25;;;17.40;99.90;;;;;;5071657;28;20177;-38
2023/04/29 10:59:16;;;;;;;1.67;1.10;;;17.40;99.90;;;;;;5053327;28;20240;-38
2023/04/29 11:01:44;;;;;;;1.00;1.00;;;17.80;99.90;;;;;;5068586;28;20696;-36
2023/04/29 11:04:10;;;;;;;1.45;1.27;;;18.20;99.90;;;;;;5052959;28;20283;-35
2023/04/29 11:06:36;;;;;;;1.15;1.05;;;18.00;99.90;;;;;;5053271;28;20177;-36
2023/04/29 11:09:07;;;;;;;1.25;1.17;;;18.50;99.90;;;;;;5069188;28;20211;-36
2023/04/29 11:11:52;;;;;;;1.35;1.25;;;18.90;99.90;;;;;;5066402;28;20228;-39
2023/04/29 11:14:25;;;;;;;1.00;1.00;;;19.20;99.90;;;;;;5068930;28;20264;-35
2023/04/29 11:16:55;;;;;;;1.23;1.10;;;18.90;99.90;;;;;;5068682;28;20200;-36
2023/04/29 11:19:25;;;;;;;1.20;1.10;;;19.20;99.90;;;;;;5052056;28;20234;-37
2023/04/29 11:22:17;;;;;;;2.38;1.23;;;18.90;99.90;;;;;;5067073;28;20212;-36
2023/04/29 11:25:04;;;;;;;1.30;1.20;;;18.50;99.90;;;;;;5050756;28;20189;-37
2023/04/29 11:27:41;;;;;;;1.13;1.02;;;18.40;99.90;;;;;;5066043;28;20205;-36
2023/04/29 11:30:08;;;;;;;1.02;1.00;;;18.20;99.90;;;;;;5050859;28;20200;-36
2023/04/29 11:32:41;;;;;;;1.20;1.10;;;17.70;99.90;;;;;;5066867;28;20192;-37
2023/04/29 11:35:14;;;;;;;1.17;1.10;;;17.50;99.90;;;;;;5067085;28;20181;-37
2023/04/29 11:37:44;;;;;;;1.63;1.52;;;17.60;99.90;;;;;;5051488;28;20169;-37
2023/04/29 11:40:12;;;;;;;1.45;1.23;;;17.60;99.90;;;;;;5049917;28;20201;-37
2023/04/29 11:42:44;;;;;;;1.55;1.30;;;17.80;99.90;;;;;;5067312;28;20201;-37
2023/04/29 11:45:11;;;;;;;2.17;1.23;;;18.20;99.90;;;;;;5051475;28;20177;-36
2023/04/29 11:47:43;;;;;;;2.30;1.10;;;18.10;99.90;;;;;;5067945;28;20181;-36
2023/04/29 11:50:10;;;;;;;2.53;1.15;;;18.20;99.90;;;;;;5069287;28;20197;-36
2023/04/29 11:52:39;;;;;;;1.20;1.10;;;18.60;99.90;;;;;;5068744;28;20189;-37
2023/04/29 11:55:10;;;;;;;1.25;1.15;;;18.70;99.90;;;;;;5056839;28;20184;-38
2023/04/29 11:57:41;;;;;;;1.33;1.15;;;19.00;99.90;;;;;;5068029;28;20238;-39
2023/04/29 12:00:12;;;;;;;2.10;1.15;;;18.90;99.90;;;;;;5051808;28;20193;-37
2023/04/29 12:02:38;;;;;;;1.60;1.50;;;18.60;99.90;;;;;;5051975;28;20386;-36
2023/04/29 12:05:07;;;;;;;2.63;1.65;;;18.40;99.90;;;;;;5067145;28;20182;-36
2023/04/29 12:07:33;;;;;;;1.52;1.20;;;18.30;99.90;;;;;;5069100;28;20212;-39
2023/04/29 12:09:59;;;;;;;3.13;1.38;;;18.40;99.90;;;;;;5057101;28;20209;-38
2023/04/29 12:12:30;;;;;;;1.50;1.40;;;18.30;99.90;;;;;;5068226;28;20188;-36
2023/04/29 12:14:56;;;;;;;3.83;2.53;;;18.30;99.90;;;;;;5068575;28;20700;-36
2023/04/29 12:17:23;;;;;;;1.92;1.40;;;18.40;99.90;;;;;;5052206;28;20259;-36
2023/04/29 12:19:49;;;;;;;4.13;2.15;;;18.40;99.90;;;;;;5069979;28;20177;-36
2023/04/29 12:22:15;;;;;;;4.00;2.65;;;18.30;99.90;;;;;;5067984;28;20197;-36
2023/04/29 12:24:41;;;;;;;3.35;1.50;;;18.30;99.90;;;;;;5068477;28;20180;-36
2023/04/29 12:27:10;;;;;;;1.77;1.67;;;18.50;99.90;;;;;;5062276;28;20173;-37
2023/04/29 12:29:37;;;;;;;3.95;2.67;;;18.50;99.90;;;;;;5049932;28;20194;-36
2023/04/29 12:32:03;;;;;;;1.60;1.30;;;18.50;99.90;;;;;;5052360;28;20220;-37
2023/04/29 12:34:30;;;;;;;1.95;1.77;;;18.90;99.90;;;;;;5068672;28;20212;-39
2023/04/29 12:36:59;;;;;;;1.73;1.63;;;19.40;99.90;;;;;;5068223;28;20177;-37
2023/04/29 12:39:27;;;;;;;1.90;1.60;;;19.50;99.90;;;;;;5066014;28;20236;-38
2023/04/29 12:41:58;;;;;;;1.73;1.63;;;19.60;99.90;;;;;;5049890;28;20208;-37
2023/04/29 12:44:25;;;;;;;2.55;2.17;;;19.30;99.90;;;;;;5051328;28;20188;-40
2023/04/29 12:46:52;;;;;;;3.47;1.90;;;19.30;99.90;;;;;;5075094;28;20264;-37
2023/04/29 12:49:18;;;;;;;2.15;1.95;;;19.60;99.90;;;;;;5080360;28;20263;-37
2023/04/29 12:51:44;;;;;;;1.95;1.67;;;19.10;99.90;;;;;;5073554;28;20201;-37
2023/04/29 12:54:12;;;;;;;2.35;1.88;;;18.70;99.90;;;;;;5065575;28;20185;-38
2023/04/29 12:56:38;;;;;;;3.05;2.17;;;18.20;99.90;;;;;;5068903;28;20185;-38
2023/04/29 12:59:09;;;;;;;2.97;2.20;;;17.80;99.90;;;;;;5069476;28;20194;-38